Elton, WI (54430)

11:26 AM CDT on July 24, 2016 (GMT -0500)
Langlade County | | Change Station

Elev 1522 ft 45.16 °N, 89.11 °W | Updated 11 minutes ago

Overcast
Overcast
73 °F
Feels Like 73 °F
N
0
Wind Variable Wind from North

Today
High -- | Low -- °F
--% Chance of Precip.
Yesterday
High -- | Low -- °F
Precip. -- in
Pressure 29.83 in
Visibility 2.5 miles
Clouds Overcast 400 ft
Dew Point 72 °F
Humidity 99%
Rainfall 0.12 in
Snow Depth Not available.
5:32 AM 8:31 PM
Waning Gibbous, 75% visible
METAR KAIG 241615Z AUTO 00000KT 2 1/2SM BR OVC004 23/23 A2983 RMK AO2 T02260225
Pressure 29.83 in
Visibility 2.5 miles
Clouds Overcast 400 ft
Dew Point 72 °F
Humidity 99%
Rainfall 0.12 in
Snow Depth Not available.
5:32 AM 8:31 PM
Waning Gibbous, 75% visible
METAR KAIG 241615Z AUTO 00000KT 2 1/2SM BR OVC004 23/23 A2983 RMK AO2 T02260225

10-Day Weather Forecast

Almanac

Astronomy

Jul. 24, 2016 Rise Set
Actual Time
Civil Twilight
Nautical Twilight
Astronomical Twilight
Moon
Length of Visible Light
Length of Day
Tomorrow will be .
, % of the Moon is Illuminated

Today's Extremes

State Highs State Lows

Community

WunderPhotos

Upload Photos

1,927,120 photos uploaded!

WunderBlog® & News

Nearby

Air Quality

  Air Quality AQ Index Pollutant
Not available.

Snow Depth

Station Depth Elevation

Earthquake Activity

City Distance Mag. Time & Date
Minimum magnitude displayed is 2.5.

Coastal Water Temperatures

Place Temperature

Stations

Nearby Weather Stations

Station Location Temp. Windchill Dew Point Humidity Wind Precip. Elev Updated Type
                   

Watches & Warnings

There are currently no watches in effect.